Time;durP1;ratioP1;P1;durP2;ratioP2;P2;SDS_P1;SDS_P2;PMS_P1;PMS_P2;Temp;Humidity;BMP_temperature;BMP_pressure;BME280_temperature;BME280_humidity;BME280_pressure;Samples;Min_cycle;Max_cycle;Signal;HPM_P1;HPM_P2
2023/06/23 00:00:28;;;;;;;5.78;3.67;;;;;;;19.33;100.00;99630.50;12214296;19;20385;-81
2023/06/23 00:04:30;;;;;;;7.50;3.72;;;;;;;19.32;100.00;99614.03;12194003;19;20018;-81
2023/06/23 00:08:33;;;;;;;5.80;3.87;;;;;;;19.31;100.00;99616.00;12215991;19;20024;-81
2023/06/23 00:12:41;;;;;;;6.35;3.47;;;;;;;19.29;100.00;99625.84;12213680;19;20013;-80
2023/06/23 00:16:43;;;;;;;7.05;4.30;;;;;;;19.27;100.00;99637.31;12192831;19;20039;-79
2023/06/23 00:20:44;;;;;;;7.50;4.32;;;;;;;19.26;100.00;99644.06;12212313;19;20002;-81
2023/06/23 00:24:46;;;;;;;8.10;4.78;;;;;;;19.32;100.00;99641.97;12215341;19;20006;-81
2023/06/23 00:28:48;;;;;;;7.45;4.78;;;;;;;19.35;100.00;99649.75;12193300;19;20031;-80
2023/06/23 00:32:50;;;;;;;6.73;4.40;;;;;;;19.37;100.00;99649.44;12215196;19;20007;-80
2023/06/23 00:36:52;;;;;;;7.40;4.27;;;;;;;19.37;100.00;99650.25;12213460;19;20011;-80
2023/06/23 00:40:55;;;;;;;7.63;4.43;;;;;;;19.39;100.00;99653.53;12188715;19;20015;-81
2023/06/23 00:44:57;;;;;;;7.60;4.73;;;;;;;19.43;100.00;99674.16;12212211;19;20028;-81
2023/06/23 00:49:00;;;;;;;9.93;4.40;;;;;;;19.44;100.00;99684.19;12188939;19;20131;-81
2023/06/23 00:53:02;;;;;;;;;;;;;;;19.44;100.00;99686.16;12212115;19;20007;-81
2023/06/23 00:57:05;;;;;;;7.43;4.82;;;;;;;19.47;100.00;99694.75;12209955;19;19924;-81
2023/06/23 01:01:10;;;;;;;6.80;4.78;;;;;;;19.47;100.00;99705.09;12186918;19;20011;-80
2023/06/23 01:05:12;;;;;;;9.75;5.05;;;;;;;19.42;100.00;99697.63;12208679;19;20010;-80
2023/06/23 01:09:49;;;;;;;9.03;5.00;;;;;;;19.41;100.00;99711.94;12216916;19;20017;-80
2023/06/23 01:14:06;;;;;;;6.97;4.78;;;;;;;19.39;100.00;99697.44;12200478;19;20006;-82
2023/06/23 01:18:27;;;;;;;7.55;4.68;;;;;;;19.37;100.00;99717.31;12222937;19;20010;-81
2023/06/23 01:22:36;;;;;;;7.93;5.07;;;;;;;19.25;100.00;99722.59;12206680;19;20733;-82
2023/06/23 01:26:56;;;;;;;8.00;4.82;;;;;;;19.26;100.00;99733.44;12221839;19;20022;-79
2023/06/23 01:31:01;;;;;;;8.85;5.20;;;;;;;19.29;100.00;99723.63;12199248;19;20468;-79
2023/06/23 01:35:07;;;;;;;8.15;5.00;;;;;;;19.31;100.00;99743.72;12219980;19;20017;-79
2023/06/23 01:39:13;;;;;;;6.93;4.50;;;;;;;19.34;100.00;99748.66;12215345;19;20019;-79
2023/06/23 01:43:17;;;;;;;7.20;5.07;;;;;;;19.35;100.00;99755.91;12198713;19;20368;-79
2023/06/23 01:47:26;;;;;;;7.30;5.00;;;;;;;19.38;100.00;99760.06;12218378;19;20007;-79
2023/06/23 01:51:29;;;;;;;8.40;5.57;;;;;;;19.38;100.00;99769.25;12217216;19;20015;-78
2023/06/23 01:55:33;;;;;;;9.98;5.93;;;;;;;19.39;100.00;99768.09;12195458;19;20006;-79
2023/06/23 01:59:38;;;;;;;7.82;4.97;;;;;;;19.38;100.00;99772.06;12219197;19;20528;-79
2023/06/23 02:03:40;;;;;;;7.63;4.70;;;;;;;19.41;100.00;99782.59;12216674;19;21349;-79
2023/06/23 02:07:46;;;;;;;8.95;4.72;;;;;;;19.40;100.00;99774.56;12195712;19;20011;-79
2023/06/23 02:11:49;;;;;;;7.88;5.30;;;;;;;19.35;100.00;99769.88;12213605;19;20002;-78
2023/06/23 02:15:53;;;;;;;8.70;5.43;;;;;;;19.32;100.00;99760.13;12217796;19;20483;-79
2023/06/23 02:19:57;;;;;;;7.90;5.40;;;;;;;19.34;100.00;99777.44;12194065;19;20005;-79
2023/06/23 02:24:03;;;;;;;8.13;5.68;;;;;;;19.35;100.00;99783.84;12217251;19;20023;-80
2023/06/23 02:28:08;;;;;;;8.32;5.15;;;;;;;19.35;100.00;99787.47;12197107;19;20011;-78
2023/06/23 02:32:17;;;;;;;9.32;5.32;;;;;;;19.32;100.00;99787.25;12216810;19;20012;-80
2023/06/23 02:36:21;;;;;;;7.60;5.45;;;;;;;19.30;100.00;99792.31;12218137;19;20087;-80
2023/06/23 02:40:26;;;;;;;8.90;5.40;;;;;;;19.27;100.00;99790.13;12196008;19;20495;-80
2023/06/23 02:44:37;;;;;;;7.35;4.57;;;;;;;19.30;100.00;99792.31;12218628;19;20007;-80
2023/06/23 02:48:42;;;;;;;7.50;4.88;;;;;;;19.26;100.00;99797.69;12212006;19;20018;-80
2023/06/23 02:52:47;;;;;;;7.55;5.00;;;;;;;19.24;100.00;99807.50;12193469;19;20015;-79
2023/06/23 02:56:51;;;;;;;8.25;5.20;;;;;;;19.23;100.00;99797.50;12215579;19;20031;-80
2023/06/23 03:00:56;;;;;;;7.95;5.18;;;;;;;19.16;100.00;99809.06;12214084;19;20002;-79
2023/06/23 03:04:59;;;;;;;9.35;5.43;;;;;;;19.15;100.00;99809.38;12195527;19;20490;-79
2023/06/23 03:09:02;;;;;;;8.63;5.10;;;;;;;19.15;100.00;99814.94;12217538;19;19999;-80
2023/06/23 03:13:04;;;;;;;7.63;4.75;;;;;;;19.13;100.00;99824.47;12193788;19;20011;-79
2023/06/23 03:17:13;;;;;;;8.30;5.30;;;;;;;19.11;100.00;99818.34;12216107;19;20007;-80
2023/06/23 03:21:16;;;;;;;10.13;5.65;;;;;;;19.15;100.00;99826.94;12214793;19;20083;-80
2023/06/23 03:25:26;;;;;;;7.93;5.72;;;;;;;19.15;100.00;99828.91;12192440;19;20010;-80
2023/06/23 03:29:31;;;;;;;7.95;5.38;;;;;;;19.16;100.00;99842.59;12214838;19;20385;-81
2023/06/23 03:33:44;;;;;;;11.48;5.82;;;;;;;19.15;100.00;99840.91;12211649;19;20002;-81
2023/06/23 03:37:54;;;;;;;10.77;5.90;;;;;;;19.12;100.00;99859.09;12188257;19;20014;-79
2023/06/23 03:41:56;;;;;;;10.55;6.03;;;;;;;19.11;100.00;99859.44;12212115;19;20022;-79
2023/06/23 03:46:01;;;;;;;;;;;;;;;19.04;100.00;99865.41;12191218;19;20010;-79
2023/06/23 03:50:16;;;;;;;9.75;6.65;;;;;;;19.08;100.00;99872.03;12212321;19;19911;-80
2023/06/23 03:54:19;;;;;;;8.80;6.10;;;;;;;19.13;100.00;99873.94;12212966;19;20010;-80
2023/06/23 03:58:21;;;;;;;8.93;6.38;;;;;;;19.15;100.00;99879.19;12191533;19;20042;-80
2023/06/23 04:02:26;;;;;;;9.85;5.80;;;;;;;19.17;100.00;99886.13;12209343;19;20023;-80
2023/06/23 04:06:30;;;;;;;10.10;6.50;;;;;;;19.15;100.00;99893.16;12216785;19;20007;-79
2023/06/23 04:10:33;;;;;;;9.27;6.68;;;;;;;19.09;100.00;99889.63;12192301;19;20015;-79
2023/06/23 04:14:37;;;;;;;9.27;6.90;;;;;;;19.04;100.00;99904.50;12213814;19;20011;-81
2023/06/23 04:18:42;;;;;;;10.90;7.22;;;;;;;19.04;100.00;99909.28;12215132;19;20017;-81
2023/06/23 04:22:46;;;;;;;12.52;7.65;;;;;;;19.02;100.00;99906.78;12191797;19;20513;-79
2023/06/23 04:26:52;;;;;;;19.48;8.07;;;;;;;19.06;100.00;99912.56;12211820;19;20011;-78
2023/06/23 04:30:55;;;;;;;11.93;8.13;;;;;;;19.06;100.00;99929.31;12212232;19;20342;-78
2023/06/23 04:34:57;;;;;;;14.43;8.40;;;;;;;19.02;100.00;99931.91;12191754;19;20475;-79
2023/06/23 04:39:12;;;;;;;12.70;8.67;;;;;;;18.99;100.00;99942.84;12210577;19;20077;-79
2023/06/23 04:43:19;;;;;;;13.10;8.73;;;;;;;18.93;100.00;99953.28;12196930;19;20006;-80
2023/06/23 04:47:25;;;;;;;10.98;8.10;;;;;;;18.99;100.00;99966.03;12222791;19;20665;-81
2023/06/23 04:51:31;;;;;;;10.25;7.15;;;;;;;18.96;100.00;99977.78;12220577;19;20437;-81
2023/06/23 04:55:35;;;;;;;12.55;8.15;;;;;;;18.94;100.00;99980.03;12197033;19;20014;-80
2023/06/23 04:59:39;;;;;;;11.73;7.28;;;;;;;18.92;100.00;99978.69;12200612;19;20013;-79
2023/06/23 05:03:44;;;;;;;9.68;6.55;;;;;;;18.88;100.00;99981.25;12225659;19;20043;-82
2023/06/23 05:07:48;;;;;;;9.45;6.18;;;;;;;18.77;100.00;99988.09;12200457;19;20468;-82
2023/06/23 05:11:52;;;;;;;7.03;4.93;;;;;;;18.71;100.00;99983.69;12223652;19;20010;-81
2023/06/23 05:15:54;;;;;;;9.48;5.32;;;;;;;18.70;100.00;99994.03;12225663;19;20007;-80
2023/06/23 05:20:03;;;;;;;6.43;4.60;;;;;;;18.70;100.00;99987.63;12205218;19;20015;-80
2023/06/23 05:24:08;;;;;;;7.97;4.93;;;;;;;18.64;100.00;100004.44;12229889;19;20014;-80
2023/06/23 05:28:12;;;;;;;7.50;5.18;;;;;;;18.69;100.00;100009.13;12204238;19;20023;-79
2023/06/23 05:32:18;;;;;;;7.25;4.75;;;;;;;18.72;100.00;100007.69;12222904;19;20388;-80
2023/06/23 05:36:24;;;;;;;6.75;4.40;;;;;;;18.90;100.00;100016.13;12224255;19;21302;-80
2023/06/23 05:40:27;;;;;;;7.55;4.70;;;;;;;19.09;100.00;100010.53;12201095;19;20027;-81
2023/06/23 05:44:28;;;;;;;7.65;4.50;;;;;;;19.18;100.00;100023.84;12226901;19;20023;-81
2023/06/23 05:48:37;;;;;;;;;;;;;;;19.15;100.00;100027.22;12226697;19;20030;-79
2023/06/23 05:52:48;;;;;;;6.85;4.68;;;;;;;19.22;100.00;100055.63;12203327;19;19910;-80
2023/06/23 05:56:57;;;;;;;8.02;5.13;;;;;;;19.12;100.00;100046.25;12222663;19;20439;-79
2023/06/23 06:01:04;;;;;;;7.35;4.97;;;;;;;19.03;100.00;100053.63;12199769;19;20015;-81
2023/06/23 06:05:10;;;;;;;7.13;5.03;;;;;;;18.96;100.00;100069.94;12223930;19;20010;-80
2023/06/23 06:09:15;;;;;;;8.45;5.43;;;;;;;18.89;100.00;100070.31;12218466;19;20409;-79
2023/06/23 06:13:22;;;;;;;7.13;5.07;;;;;;;18.92;100.00;100080.06;12198872;19;20003;-80
2023/06/23 06:17:27;;;;;;;7.60;5.30;;;;;;;18.92;100.00;100084.78;12224376;19;20368;-81
2023/06/23 06:21:33;;;;;;;9.02;6.13;;;;;;;18.94;100.00;100094.53;12223164;19;20022;-80
2023/06/23 06:25:43;;;;;;;9.00;5.95;;;;;;;19.00;100.00;100103.69;12199544;19;20009;-80
2023/06/23 06:29:48;;;;;;;8.40;5.60;;;;;;;19.12;100.00;100112.47;12221909;19;20046;-80
2023/06/23 06:33:52;;;;;;;8.18;5.93;;;;;;;19.47;98.14;100108.34;12223765;19;20018;-80
2023/06/23 06:37:56;;;;;;;8.82;6.00;;;;;;;19.69;94.75;100113.38;12206099;19;20059;-80
2023/06/23 06:41:58;;;;;;;;;;;;;;;20.08;92.73;100123.38;12230204;19;20014;-80
2023/06/23 06:46:02;;;;;;;9.70;5.50;;;;;;;20.55;87.37;100117.78;12205948;19;20622;-80
2023/06/23 06:50:07;;;;;;;8.55;5.75;;;;;;;21.08;82.17;100118.13;12228422;19;20011;-80
2023/06/23 06:54:09;;;;;;;9.32;6.05;;;;;;;21.24;83.23;100124.25;12219346;19;20016;-80
2023/06/23 06:58:16;;;;;;;10.13;5.30;;;;;;;21.25;82.48;100125.06;12195721;19;20017;-79
2023/06/23 07:02:19;;;;;;;8.55;5.55;;;;;;;20.93;80.96;100136.06;12216362;19;20020;-80
2023/06/23 07:06:25;;;;;;;7.63;5.80;;;;;;;20.87;83.97;100134.50;12216172;19;20029;-79
2023/06/23 07:10:27;;;;;;;9.13;6.22;;;;;;;20.66;85.64;100155.66;12192694;19;20014;-80
2023/06/23 07:14:35;;;;;;;11.30;6.45;;;;;;;20.38;87.34;100157.56;12213291;19;20014;-80
2023/06/23 07:18:37;;;;;;;;;;;;;;;20.34;87.41;100167.69;12219545;19;20018;-79
2023/06/23 07:22:39;;;;;;;14.13;6.55;;;;;;;20.38;86.02;100186.38;12196964;19;19922;-78
2023/06/23 07:26:42;;;;;;;9.52;5.93;;;;;;;20.50;83.20;100174.69;12219286;19;20027;-80
2023/06/23 07:30:44;;;;;;;8.27;5.73;;;;;;;20.57;84.44;100186.34;12220723;19;20489;-80
2023/06/23 07:34:46;;;;;;;10.27;6.20;;;;;;;20.53;82.97;100188.09;12196456;19;20250;-79
2023/06/23 07:38:50;;;;;;;8.48;5.53;;;;;;;20.62;81.31;100191.84;12217994;19;20376;-80
2023/06/23 07:42:53;;;;;;;7.95;5.85;;;;;;;20.68;81.03;100189.78;12212775;19;20365;-81
2023/06/23 07:46:55;;;;;;;10.00;6.03;;;;;;;20.53;78.59;100201.28;12191428;19;20011;-78
2023/06/23 07:51:02;;;;;;;8.02;6.25;;;;;;;20.45;80.54;100205.56;12215374;19;20835;-80
2023/06/23 07:55:07;;;;;;;8.27;5.70;;;;;;;20.56;78.57;100211.84;12199910;19;20032;-80
2023/06/23 07:59:09;;;;;;;10.20;5.63;;;;;;;21.00;75.36;100199.25;12216151;19;20007;-80
2023/06/23 08:03:12;;;;;;;9.37;6.23;;;;;;;21.15;73.61;100204.59;12212750;19;20007;-81
2023/06/23 08:07:14;;;;;;;8.90;6.25;;;;;;;21.19;73.18;100216.81;12191288;19;20028;-80
2023/06/23 08:11:17;;;;;;;12.55;6.20;;;;;;;21.19;74.76;100222.41;12206908;19;20018;-80
2023/06/23 08:15:19;;;;;;;9.85;5.88;;;;;;;21.37;72.39;100232.72;12211321;19;20010;-80
2023/06/23 08:19:24;;;;;;;8.55;6.63;;;;;;;21.73;71.38;100242.34;12208275;19;20013;-80
2023/06/23 08:23:26;;;;;;;10.15;7.05;;;;;;;21.88;69.41;100244.81;12236431;19;19999;-81
2023/06/23 08:27:35;;;;;;;10.98;5.70;;;;;;;21.87;67.97;100245.16;12239276;19;20006;-80
2023/06/23 08:31:37;;;;;;;9.23;6.73;;;;;;;21.52;68.91;100251.19;12214319;19;20010;-80
2023/06/23 08:35:39;;;;;;;10.33;5.17;;;;;;;21.65;67.71;100268.31;12235136;19;20090;-81
2023/06/23 08:39:41;;;;;;;9.70;6.17;;;;;;;21.38;69.08;100279.22;12235201;19;20812;-81
2023/06/23 08:43:48;;;;;;;10.60;6.53;;;;;;;21.73;66.42;100267.59;12214572;19;20018;-81
2023/06/23 08:47:56;;;;;;;10.05;6.47;;;;;;;22.37;61.26;100254.38;12237102;19;20010;-80
2023/06/23 08:51:59;;;;;;;10.25;6.50;;;;;;;22.05;65.08;100261.81;12218488;19;20035;-81
2023/06/23 08:56:02;;;;;;;8.68;6.00;;;;;;;22.22;61.70;100269.63;12236560;19;20028;-82
2023/06/23 09:00:06;;;;;;;8.57;6.13;;;;;;;22.34;62.87;100266.25;12235485;19;20043;-78
2023/06/23 09:04:08;;;;;;;9.23;5.90;;;;;;;22.06;63.74;100277.50;12212436;19;20006;-79
2023/06/23 09:08:13;;;;;;;11.55;5.93;;;;;;;22.35;64.01;100269.88;12233118;19;20007;-80
2023/06/23 09:12:16;;;;;;;;;;;;;;;22.65;59.93;100277.53;12230560;19;20014;-79
2023/06/23 09:16:20;;;;;;;10.75;6.50;;;;;;;22.49;61.09;100274.28;12207350;19;19935;-80
2023/06/23 09:20:22;;;;;;;11.00;5.97;;;;;;;22.80;61.05;100279.13;12227563;19;20069;-82
2023/06/23 09:24:41;;;;;;;7.40;5.38;;;;;;;22.88;58.68;100288.78;12226174;19;20010;-80
2023/06/23 09:28:43;;;;;;;9.00;5.32;;;;;;;23.33;57.30;100280.28;12198340;19;20630;-80
2023/06/23 09:32:45;;;;;;;8.40;5.65;;;;;;;23.52;56.73;100275.22;12219269;19;20388;-80
2023/06/23 09:36:47;;;;;;;8.85;5.63;;;;;;;23.41;56.52;100287.94;12217915;19;20027;-77
2023/06/23 09:41:10;;;;;;;10.10;6.05;;;;;;;23.08;56.63;100285.47;12196455;19;20006;-79
2023/06/23 09:45:16;;;;;;;10.88;5.80;;;;;;;23.32;55.67;100307.59;12218624;19;20043;-80
2023/06/23 09:49:18;;;;;;;9.00;6.07;;;;;;;23.58;55.40;100293.59;12194497;19;20012;-78
2023/06/23 09:53:24;;;;;;;8.68;5.97;;;;;;;23.55;55.17;100302.69;12219212;19;19998;-81
2023/06/23 09:57:25;;;;;;;9.77;5.43;;;;;;;23.62;53.82;100311.50;12218573;19;20360;-79
2023/06/23 10:01:27;;;;;;;8.88;4.97;;;;;;;23.83;49.57;100308.16;12194195;19;20002;-79
2023/06/23 10:05:34;;;;;;;7.95;5.97;;;;;;;24.00;51.57;100315.78;12221867;19;20026;-81
2023/06/23 10:09:48;;;;;;;9.07;5.63;;;;;;;23.91;53.56;100312.13;12218252;19;20010;-81
2023/06/23 10:13:50;;;;;;;9.73;6.20;;;;;;;24.37;50.52;100311.53;12195085;19;20073;-80
2023/06/23 10:17:52;;;;;;;6.93;4.80;;;;;;;24.21;50.88;100321.63;12219377;19;20039;-81
2023/06/23 10:21:54;;;;;;;8.13;5.65;;;;;;;23.62;52.21;100313.50;12218653;19;20022;-80
2023/06/23 10:25:57;;;;;;;7.18;5.03;;;;;;;24.02;51.69;100319.09;12199151;19;20590;-83
2023/06/23 10:30:00;;;;;;;13.02;6.15;;;;;;;24.28;49.22;100324.78;12219074;19;20007;-81
2023/06/23 10:34:05;;;;;;;8.27;4.78;;;;;;;24.97;48.82;100321.97;12200545;19;20030;-81
2023/06/23 10:38:10;;;;;;;8.48;5.07;;;;;;;25.19;46.20;100325.75;12217085;19;20002;-82
2023/06/23 10:42:13;;;;;;;7.80;5.18;;;;;;;24.61;49.32;100336.44;12216380;19;20022;-81
2023/06/23 10:46:15;;;;;;;8.70;5.50;;;;;;;24.03;50.16;100337.63;12199797;19;20018;-79
2023/06/23 10:50:18;;;;;;;7.20;5.45;;;;;;;23.83;49.59;100355.97;12222020;19;20031;-80
2023/06/23 10:54:28;;;;;;;8.95;4.82;;;;;;;23.94;48.79;100348.06;12223426;19;20018;-81
2023/06/23 10:58:45;;;;;;;6.53;5.13;;;;;;;24.24;49.22;100346.28;12198216;19;20011;-81
2023/06/23 11:02:52;;;;;;;7.35;5.13;;;;;;;24.52;49.20;100355.31;12220068;19;20010;-80
2023/06/23 11:07:21;;;;;;;8.20;5.18;;;;;;;24.27;49.76;100363.38;12218397;19;20010;-81
2023/06/23 11:11:33;;;;;;;9.27;5.65;;;;;;;23.75;51.50;100365.22;12193274;19;20785;-80
2023/06/23 11:15:37;;;;;;;7.45;5.00;;;;;;;23.48;52.77;100366.22;12214368;19;20003;-80
2023/06/23 11:19:39;;;;;;;12.10;5.38;;;;;;;23.81;50.92;100370.38;12197805;19;20021;-81
2023/06/23 11:24:05;;;;;;;11.83;5.30;;;;;;;24.06;49.92;100373.59;12217048;19;20014;-81
2023/06/23 11:28:26;;;;;;;7.72;4.75;;;;;;;23.67;51.90;100381.69;12199777;19;20334;-80
2023/06/23 11:32:28;;;;;;;8.25;5.32;;;;;;;23.16;52.56;100383.06;12219639;19;20015;-81
2023/06/23 11:36:31;;;;;;;6.97;5.33;;;;;;;22.97;53.63;100390.88;12222468;19;20501;-81
2023/06/23 11:40:33;;;;;;;6.53;4.93;;;;;;;22.73;54.59;100397.59;12198422;19;20255;-80
2023/06/23 11:44:36;;;;;;;6.60;4.80;;;;;;;22.97;54.39;100390.88;12217342;19;20327;-81
2023/06/23 11:48:42;;;;;;;6.43;4.70;;;;;;;23.16;53.56;100399.91;12218598;19;20006;-80
2023/06/23 11:52:48;;;;;;;7.22;5.10;;;;;;;23.20;53.58;100394.47;12190825;19;20007;-79
2023/06/23 11:56:51;;;;;;;7.53;4.38;;;;;;;23.24;55.15;100400.31;12217558;19;20017;-80
2023/06/23 12:00:53;;;;;;;;;;;;;;;23.61;52.63;100404.66;12215180;19;20035;-80
2023/06/23 12:04:59;;;;;;;6.60;4.30;;;;;;;23.85;51.76;100407.13;12193159;19;19918;-78
2023/06/23 12:09:02;;;;;;;9.50;4.60;;;;;;;23.87;52.80;100400.03;12214534;19;20493;-79
2023/06/23 12:13:09;;;;;;;6.47;4.40;;;;;;;23.85;51.25;100410.75;12193394;19;20019;-78
2023/06/23 12:17:12;;;;;;;6.15;4.55;;;;;;;23.62;51.80;100393.09;12213377;19;20014;-79
2023/06/23 12:21:19;;;;;;;7.05;4.15;;;;;;;23.57;51.95;100398.03;12213971;19;20014;-79
2023/06/23 12:25:30;;;;;;;7.53;4.80;;;;;;;23.96;49.99;100402.03;12195070;19;20018;-79
2023/06/23 12:29:33;;;;;;;7.72;5.18;;;;;;;24.42;49.90;100393.09;12217962;19;20507;-80
2023/06/23 12:33:41;;;;;;;8.10;5.23;;;;;;;24.44;52.09;100387.94;12220426;19;20338;-78
2023/06/23 12:37:47;;;;;;;6.75;4.28;;;;;;;24.06;49.34;100388.50;12195257;19;20007;-78
2023/06/23 12:41:50;;;;;;;6.03;3.72;;;;;;;23.59;50.03;100402.19;12215802;19;20038;-78
2023/06/23 12:45:55;;;;;;;6.72;3.80;;;;;;;25.04;47.96;100397.59;12242842;19;20014;-77
2023/06/23 12:50:06;;;;;;;8.23;4.28;;;;;;;27.21;43.78;100379.56;12201008;19;20021;-78
2023/06/23 12:54:08;;;;;;;5.07;4.13;;;;;;;28.96;39.82;100376.06;12217576;19;20014;-78
2023/06/23 12:58:10;;;;;;;4.90;3.85;;;;;;;30.66;34.82;100374.41;12197582;19;20049;-81
2023/06/23 13:02:18;;;;;;;5.00;3.30;;;;;;;31.14;32.10;100363.66;12213601;19;20386;-78
2023/06/23 13:06:21;;;;;;;6.00;3.75;;;;;;;29.66;33.75;100366.31;12226271;19;20003;-78
2023/06/23 13:10:23;;;;;;;;;;;;;;;28.31;36.78;100375.25;12207082;19;20010;-78
2023/06/23 13:14:25;;;;;;;6.85;3.60;;;;;;;27.63;38.20;100378.63;12226665;19;19914;-78
2023/06/23 13:18:28;;;;;;;6.05;3.92;;;;;;;27.12;38.61;100390.13;12223802;19;20007;-79
2023/06/23 13:22:30;;;;;;;6.72;3.60;;;;;;;26.79;38.56;100393.75;12199302;19;20101;-78
2023/06/23 13:26:32;;;;;;;4.57;3.65;;;;;;;26.41;39.75;100382.50;12222585;19;20027;-79
2023/06/23 13:30:34;;;;;;;8.73;3.80;;;;;;;27.88;37.30;100388.84;12220255;19;20055;-80
2023/06/23 13:34:36;;;;;;;6.00;3.70;;;;;;;28.55;36.29;100383.75;12200739;19;20014;-77
2023/06/23 13:38:39;;;;;;;7.32;4.32;;;;;;;29.65;34.49;100378.84;12224005;19;20476;-78
2023/06/23 13:42:42;;;;;;;5.45;3.92;;;;;;;30.13;34.18;100388.16;12221472;19;20015;-78
2023/06/23 13:46:45;;;;;;;6.05;3.60;;;;;;;32.22;32.60;100380.72;12204872;19;20007;-80
2023/06/23 13:50:47;;;;;;;5.40;3.55;;;;;;;33.52;29.78;100389.84;12221945;19;20011;-80
2023/06/23 13:54:49;;;;;;;5.95;3.38;;;;;;;33.97;28.37;100394.38;12226350;19;20366;-78
2023/06/23 13:58:51;;;;;;;6.03;4.18;;;;;;;32.36;29.37;100380.09;12202178;19;20019;-79
2023/06/23 14:02:53;;;;;;;4.82;4.10;;;;;;;31.33;30.28;100394.16;12222487;19;20017;-77
2023/06/23 14:06:55;;;;;;;6.55;3.40;;;;;;;31.97;29.49;100388.84;12224750;19;20002;-79
2023/06/23 14:10:59;;;;;;;9.20;4.13;;;;;;;33.69;28.01;100383.50;12201107;19;20015;-78
2023/06/23 14:15:01;;;;;;;5.30;4.05;;;;;;;35.25;27.28;100379.25;12219307;19;20018;-78
2023/06/23 14:19:04;;;;;;;4.40;3.67;;;;;;;36.92;23.42;100373.94;12195149;19;20112;-79
2023/06/23 14:23:05;;;;;;;5.93;3.65;;;;;;;36.24;24.09;100382.69;12221217;19;20013;-80
2023/06/23 14:27:08;;;;;;;5.60;4.18;;;;;;;35.48;24.23;100375.22;12223900;19;20075;-80
2023/06/23 14:31:10;;;;;;;5.22;3.08;;;;;;;33.16;27.39;100365.75;12204475;19;20007;-80
2023/06/23 14:35:12;;;;;;;6.68;3.75;;;;;;;31.04;29.84;100379.34;12224095;19;20023;-79
2023/06/23 14:39:14;;;;;;;4.43;3.70;;;;;;;30.33;30.67;100381.38;12224708;19;20010;-79
2023/06/23 14:43:16;;;;;;;7.28;3.58;;;;;;;31.65;29.58;100377.72;12197426;19;20042;-79
2023/06/23 14:47:17;;;;;;;;;;;;;;;32.91;27.52;100383.38;12223543;19;20020;-77
2023/06/23 14:51:20;;;;;;;6.45;3.10;;;;;;;31.39;29.41;100384.13;12220284;19;19943;-78
2023/06/23 14:55:24;;;;;;;4.47;3.40;;;;;;;32.05;29.16;100376.38;12202978;19;20015;-78
2023/06/23 14:59:26;;;;;;;5.65;2.95;;;;;;;31.40;29.83;100384.94;12219930;19;20350;-78
2023/06/23 15:03:28;;;;;;;4.82;3.10;;;;;;;30.48;30.95;100385.38;12219043;19;20014;-78
2023/06/23 15:07:30;;;;;;;5.22;3.05;;;;;;;30.71;30.54;100387.53;12199146;19;20034;-79
2023/06/23 15:11:32;;;;;;;5.88;2.42;;;;;;;30.08;29.99;100397.81;12218212;19;20023;-78
2023/06/23 15:15:34;;;;;;;4.35;2.75;;;;;;;28.98;31.65;100393.56;12223917;19;20366;-79
2023/06/23 15:19:37;;;;;;;4.05;2.50;;;;;;;30.05;29.83;100401.41;12194280;19;20007;-78
2023/06/23 15:23:38;;;;;;;3.97;2.70;;;;;;;30.47;29.62;100406.50;12219041;19;20003;-79
2023/06/23 15:27:40;;;;;;;6.55;3.15;;;;;;;29.71;31.11;100408.63;12216719;19;20006;-80
2023/06/23 15:31:43;;;;;;;4.72;2.60;;;;;;;28.70;31.25;100399.19;12192513;19;20006;-80
2023/06/23 15:35:45;;;;;;;4.63;2.83;;;;;;;28.18;31.89;100399.94;12214828;19;20015;-77
2023/06/23 15:39:47;;;;;;;3.72;2.35;;;;;;;27.54;33.08;100386.38;12211716;19;20018;-78
2023/06/23 15:43:49;;;;;;;7.13;2.70;;;;;;;27.56;32.31;100395.38;12192258;19;20037;-79
2023/06/23 15:47:51;;;;;;;4.78;2.42;;;;;;;27.47;33.24;100390.63;12215663;19;20542;-80
2023/06/23 15:51:53;;;;;;;5.07;2.58;;;;;;;27.53;33.64;100394.06;12218627;19;20763;-77
2023/06/23 15:55:55;;;;;;;4.55;2.53;;;;;;;27.78;33.95;100396.94;12193339;19;20014;-79
2023/06/23 15:59:57;;;;;;;;;;;;;;;27.70;33.40;100391.03;12216067;19;20010;-78
2023/06/23 16:03:59;;;;;;;;;;;;;;;27.38;33.82;100389.06;12196300;19;20512;-79
2023/06/23 16:08:01;;;;;;;4.40;2.70;;;;;;;27.14;34.54;100390.63;12215215;19;19915;-78
2023/06/23 16:12:04;;;;;;;3.80;2.60;;;;;;;26.81;35.38;100390.56;12210624;19;20015;-77
2023/06/23 16:16:06;;;;;;;;;;;;;;;26.49;36.37;100386.47;12193818;19;20023;-79
2023/06/23 16:20:10;;;;;;;5.43;3.00;;;;;;;26.40;36.14;100392.19;12206861;19;19914;-79
2023/06/23 16:24:11;;;;;;;3.30;2.40;;;;;;;26.58;35.87;100381.59;12211862;19;20493;-78
2023/06/23 16:28:14;;;;;;;6.03;3.05;;;;;;;26.53;36.16;100398.75;12192307;19;20011;-77
2023/06/23 16:32:16;;;;;;;6.63;3.20;;;;;;;26.45;36.44;100391.97;12213581;19;20010;-78
2023/06/23 16:36:18;;;;;;;4.63;2.97;;;;;;;26.39;36.87;100382.06;12210508;19;20059;-78
2023/06/23 16:40:20;;;;;;;5.82;2.72;;;;;;;26.43;37.26;100397.13;12205862;19;20011;-79
2023/06/23 16:44:21;;;;;;;4.93;3.03;;;;;;;26.32;37.29;100391.03;12250891;19;20044;-79
2023/06/23 16:48:23;;;;;;;4.75;3.25;;;;;;;26.19;38.09;100406.25;12229781;19;20460;-80
2023/06/23 16:52:25;;;;;;;5.18;3.15;;;;;;;25.96;38.71;100400.06;12200130;19;20006;-79
2023/06/23 16:56:27;;;;;;;6.00;3.25;;;;;;;25.92;38.70;100401.91;12226225;19;20006;-79
2023/06/23 17:00:30;;;;;;;6.22;3.20;;;;;;;26.01;38.29;100404.69;12223937;19;20351;-79
2023/06/23 17:04:32;;;;;;;7.22;3.35;;;;;;;26.08;39.00;100413.44;12199737;19;20780;-80
2023/06/23 17:08:34;;;;;;;8.52;3.13;;;;;;;26.24;39.41;100408.91;12221954;19;20010;-78
2023/06/23 17:12:37;;;;;;;7.88;3.50;;;;;;;26.50;38.75;100403.13;12220291;19;20003;-79
2023/06/23 17:16:38;;;;;;;7.00;4.38;;;;;;;26.53;39.40;100402.44;12196778;19;20027;-78
2023/06/23 17:20:40;;;;;;;4.80;3.17;;;;;;;26.63;39.21;100415.31;12216287;19;20689;-78
2023/06/23 17:24:44;;;;;;;5.68;3.30;;;;;;;26.49;38.54;100420.38;12216352;19;20021;-78
2023/06/23 17:28:46;;;;;;;5.78;3.30;;;;;;;26.34;38.10;100422.63;12200696;19;20039;-78
2023/06/23 17:32:48;;;;;;;4.65;2.90;;;;;;;26.12;38.43;100440.69;12218175;19;20463;-78
2023/06/23 17:36:50;;;;;;;4.88;3.00;;;;;;;26.00;38.49;100442.56;12221576;19;20006;-78
2023/06/23 17:40:54;;;;;;;5.20;3.15;;;;;;;25.92;38.55;100447.09;12194262;19;20011;-79
2023/06/23 17:44:55;;;;;;;4.50;3.53;;;;;;;25.83;38.77;100444.28;12217079;19;20074;-78
2023/06/23 17:48:58;;;;;;;5.53;2.83;;;;;;;25.73;39.89;100439.00;12217410;19;20899;-77
2023/06/23 17:52:59;;;;;;;4.07;3.10;;;;;;;25.61;40.26;100444.47;12191254;19;20263;-78
2023/06/23 17:57:01;;;;;;;5.20;3.50;;;;;;;25.51;40.81;100442.84;12218149;19;20011;-79
2023/06/23 18:01:03;;;;;;;3.70;2.80;;;;;;;25.42;40.78;100440.03;12193399;19;20784;-78
2023/06/23 18:05:05;;;;;;;4.67;2.83;;;;;;;25.32;41.30;100431.13;12215513;19;20388;-78
2023/06/23 18:09:08;;;;;;;4.57;2.97;;;;;;;25.34;41.17;100449.34;12216256;19;20275;-78
2023/06/23 18:13:10;;;;;;;5.25;2.80;;;;;;;25.20;41.10;100448.72;12192184;19;20003;-78
2023/06/23 18:17:12;;;;;;;5.50;2.90;;;;;;;25.11;41.66;100453.50;12214731;19;20404;-78
2023/06/23 18:21:17;;;;;;;6.88;2.97;;;;;;;25.07;41.99;100449.66;12210868;19;20410;-78
2023/06/23 18:25:19;;;;;;;4.63;2.72;;;;;;;25.02;41.24;100443.03;12191953;19;20003;-78
2023/06/23 18:29:20;;;;;;;3.08;2.17;;;;;;;24.89;41.68;100448.84;12215231;19;20014;-78
2023/06/23 18:33:22;;;;;;;4.17;2.53;;;;;;;24.77;42.25;100453.13;12216000;19;20010;-77
2023/06/23 18:37:28;;;;;;;5.13;2.92;;;;;;;24.62;42.42;100455.59;12194540;19;20021;-78
2023/06/23 18:41:32;;;;;;;5.07;3.30;;;;;;;24.46;42.48;100455.25;12211288;19;20023;-78
2023/06/23 18:45:33;;;;;;;4.22;2.88;;;;;;;24.36;42.42;100450.69;12214657;19;20006;-78